METAR rapporten vliegvelden

   
EHVK - Volkel Rnlafb, Netherlands
Afstand tot: ZW 18 km
Gewijzigd: 04-03-2021 00:55
Mist, Bewolking  
Mist, Bewolking  
   Wind: NNW 5.6 km/h
Wind: NNW 5.6 km/h
Temperatuur: 4°C
Voelt als: 3°C
Dauwpunt: 4°C
Vochtigheid: 100%
Barometer: 1024 hPa
Bewolking: Bewolking
Zicht: 1 km
Bewolking: Bewolking
EHVK 032355Z AUTO 33003KT 330V030 0600 FG OVC000 04/04 Q1024 RED
EDLV - Niederrhein, Germany
Afstand tot: ZO 25 km
Gewijzigd: 02-03-2021 15:20
Verouderd
Helder  
Helder  
   Wind: ZO 9.3 km/h
Wind: ZO 9.3 km/h
Temperatuur: 15°C
Dauwpunt: 3°C
Vochtigheid: 45%
Barometer: 1030 hPa
Zicht: meer dan 10 km
Bewolking: Helder
EDLV 021420Z 14005KT 110V190 CAVOK 15/03 Q1030
EHDL - Deelen Rnlafb, Netherlands
Afstand tot: N 35 km
Gewijzigd: 04-03-2021 00:55
Mist, Bewolking  
Mist, Bewolking  
   Wind: Noorden 7.4 km/h
Wind: Noorden 7.4 km/h
Temperatuur: 4°C
Voelt als: 2°C
Dauwpunt: 3°C
Vochtigheid: 93%
Barometer: 1024 hPa
Bewolking: Bewolking
Zicht: 1 km
Bewolking: Bewolking
EHDL 032355Z AUTO 35004KT 310V030 0550 R20/0350N FG VV000 04/03 Q1024 RED
EHEH - Eindhoven Rnlafb, Netherlands
Afstand tot: ZW 48 km
Gewijzigd: 04-03-2021 00:55
Nevel, Bewolking  
Nevel, Bewolking  
   Wind: NNW 7.4 km/h
Wind: NNW 7.4 km/h
Temperatuur: 5°C
Voelt als: 3°C
Dauwpunt: 5°C
Vochtigheid: 100%
Barometer: 1024 hPa
Bewolking: Bewolking
Zicht: 2 km
Bewolking: Bewolking 400 ft
EHEH 032355Z AUTO 34004KT 320V020 1900 BR OVC004 05/05 Q1024 YLO
EHGR - Gilze-Rijen Rnla, Netherlands
Afstand tot: WZW 70 km
Gewijzigd: 04-03-2021 01:03
Mist, Bewolking  
Mist, Bewolking  
   Wind: NNO 7.4 km/h
Wind: NNO 7.4 km/h
Temperatuur: 4°C
Voelt als: 2°C
Dauwpunt: 4°C
Vochtigheid: 100%
Barometer: 1024 hPa
Bewolking: Bewolking
Zicht: 1 km
Bewolking: Bewolking
EHGR 040003Z AUTO 02004KT 310V050 0900 FG OVC000 04/04 Q1024 RED
EBBL - Kleine-Brogel(Ba, Belgium
Afstand tot: ZZW 71 km
Gewijzigd: 04-03-2021 00:55
Nevel, Bewolking  
Nevel, Bewolking  
   Wind: Noorden 5.6 km/h
Wind: Noorden 5.6 km/h
Temperatuur: 7°C
Voelt als: 6°C
Dauwpunt: 7°C
Vochtigheid: 100%
Barometer: 1023 hPa
Bewolking: Bewolking
Zicht: 2 km
Bewolking: Grotendeels bewolkt 7400 ft,
Bewolking 11000 ft
EBBL 032355Z AUTO 36003KT 1900 BR BKN074/// OVC110/// 07/07 Q1023 YLO

Script ontwikkeld door  Saratoga-weather.org Aangepast voor de template door  Weerstation Leuven

U vindt ons ook hier:

Het Weer Aktueel

European Weather Network

WeatherCloud

Weather Underground

Benelux Weer Netwerk

Apparatuur in gebruik:

Weerstation
Davis VP2

Weerprogramma
consoleWD

Weercomputer
Raspberry

Webleverancier
Stef van Bakel koeltechniek

Davis VP2

consoleWD

Raspberry

Stef van Bakel koeltechniek